Time;durP1;ratioP1;P1;durP2;ratioP2;P2;SDS_P1;SDS_P2;PMS_P1;PMS_P2;Temp;Humidity;BMP_temperature;BMP_pressure;BME280_temperature;BME280_humidity;BME280_pressure;Samples;Min_cycle;Max_cycle;Signal;HPM_P1;HPM_P2
2024/02/05 00:01:10;;;;;;;4.47;3.10;;;10.40;99.90;;;;;;5047566;28;20209;-80
2024/02/05 00:03:37;;;;;;;3.37;3.03;;;10.40;99.90;;;;;;5041845;28;20214;-81
2024/02/05 00:06:04;;;;;;;3.77;2.70;;;10.40;99.90;;;;;;5047881;28;20206;-81
2024/02/05 00:08:32;;;;;;;5.57;2.80;;;10.40;99.90;;;;;;5041685;28;20605;-81
2024/02/05 00:10:59;;;;;;;3.13;2.80;;;10.40;99.90;;;;;;5052640;28;20210;-80
2024/02/05 00:13:26;;;;;;;4.67;3.17;;;10.40;99.90;;;;;;5053561;28;20211;-81
2024/02/05 00:15:52;;;;;;;3.50;2.97;;;10.40;99.90;;;;;;5055383;28;20206;-81
2024/02/05 00:18:20;;;;;;;3.07;2.70;;;10.40;99.90;;;;;;5042742;28;20219;-80
2024/02/05 00:20:47;;;;;;;3.43;3.13;;;10.40;99.90;;;;;;5055912;28;20233;-81
2024/02/05 00:23:13;;;;;;;3.40;2.47;;;10.40;99.90;;;;;;5052006;28;20199;-82
2024/02/05 00:25:42;;;;;;;4.73;3.20;;;10.40;99.90;;;;;;5053568;28;20199;-81
2024/02/05 00:28:08;;;;;;;4.37;2.73;;;10.40;99.90;;;;;;5055625;28;20230;-80
2024/02/05 00:30:35;;;;;;;2.60;2.40;;;10.40;99.90;;;;;;5056801;28;20207;-80
2024/02/05 00:33:02;;;;;;;3.93;2.57;;;10.30;99.90;;;;;;5048522;28;20294;-81
2024/02/05 00:35:29;;;;;;;4.40;3.03;;;10.30;99.90;;;;;;5049651;28;20208;-81
2024/02/05 00:37:56;;;;;;;3.67;2.70;;;10.30;99.90;;;;;;5054781;28;20494;-81
2024/02/05 00:40:23;;;;;;;3.80;2.60;;;10.30;99.90;;;;;;5054034;28;20204;-79
2024/02/05 00:42:51;;;;;;;3.70;2.70;;;10.30;99.90;;;;;;5048561;28;20646;-79
2024/02/05 00:45:18;;;;;;;3.90;2.63;;;10.30;99.90;;;;;;5054120;28;20207;-80
2024/02/05 00:47:45;;;;;;;3.73;2.23;;;10.30;99.90;;;;;;5052856;28;20677;-79
2024/02/05 00:50:12;;;;;;;3.93;2.50;;;10.30;99.90;;;;;;5045389;28;20238;-81
2024/02/05 00:52:38;;;;;;;3.00;2.50;;;10.40;99.90;;;;;;5054932;28;20215;-80
2024/02/05 00:55:06;;;;;;;2.77;2.43;;;10.30;99.90;;;;;;5036693;28;20224;-80
2024/02/05 00:57:33;;;;;;;2.80;2.60;;;10.30;99.90;;;;;;5051186;28;20716;-80
2024/02/05 01:00:01;;;;;;;3.67;2.30;;;10.30;99.90;;;;;;5042557;28;20207;-80
2024/02/05 01:02:28;;;;;;;2.27;2.07;;;10.30;99.90;;;;;;5051280;28;20218;-79
2024/02/05 01:04:56;;;;;;;2.57;2.37;;;10.30;99.90;;;;;;5050781;28;20202;-79
2024/02/05 01:07:23;;;;;;;2.10;2.00;;;10.30;99.90;;;;;;5046872;28;20261;-81
2024/02/05 01:09:49;;;;;;;2.23;2.00;;;10.30;99.90;;;;;;5055551;28;20744;-80
2024/02/05 01:12:16;;;;;;;2.67;2.07;;;10.30;99.90;;;;;;5045896;28;20647;-82
2024/02/05 01:14:44;;;;;;;2.70;1.80;;;10.30;99.90;;;;;;5051513;28;20203;-81
2024/02/05 01:17:12;;;;;;;2.20;2.00;;;10.30;99.90;;;;;;5048406;28;20215;-81
2024/02/05 01:19:39;;;;;;;2.27;1.73;;;10.20;99.90;;;;;;5041886;28;20597;-81
2024/02/05 01:22:06;;;;;;;1.70;1.60;;;10.20;99.90;;;;;;5052766;28;20211;-81
2024/02/05 01:24:32;;;;;;;2.37;1.83;;;10.20;99.90;;;;;;5051735;28;20200;-80
2024/02/05 01:26:59;;;;;;;1.80;1.70;;;10.20;99.90;;;;;;5050261;28;20226;-82
2024/02/05 01:29:27;;;;;;;3.83;1.70;;;10.30;99.90;;;;;;5053846;28;20648;-81
2024/02/05 01:31:53;;;;;;;1.87;1.67;;;10.20;99.90;;;;;;5047045;28;20570;-80
2024/02/05 01:34:22;;;;;;;1.60;1.50;;;10.30;99.90;;;;;;5048664;28;20572;-81
2024/02/05 01:36:49;;;;;;;1.70;1.60;;;10.20;99.90;;;;;;5055465;28;20309;-81
2024/02/05 01:39:18;;;;;;;1.70;1.60;;;10.30;99.90;;;;;;5045393;28;20208;-81
2024/02/05 01:41:45;;;;;;;2.97;1.70;;;10.30;99.90;;;;;;5048933;28;20211;-80
2024/02/05 01:44:11;;;;;;;2.27;2.00;;;10.30;99.90;;;;;;5050070;28;20662;-80
2024/02/05 01:46:39;;;;;;;2.77;1.97;;;10.30;99.90;;;;;;5052694;28;20598;-82
2024/02/05 01:49:08;;;;;;;3.73;2.00;;;10.30;99.90;;;;;;5056163;28;20221;-82
2024/02/05 01:51:40;;;;;;;2.03;1.87;;;10.40;99.90;;;;;;5048641;28;20203;-80
2024/02/05 01:54:12;;;;;;;2.70;2.20;;;10.40;99.90;;;;;;5040551;28;20253;-79
2024/02/05 01:56:39;;;;;;;1.83;1.73;;;10.50;99.90;;;;;;5054120;28;20230;-81
2024/02/05 01:59:07;;;;;;;4.40;2.13;;;10.30;99.90;;;;;;5043475;28;20645;-81
2024/02/05 02:01:37;;;;;;;3.53;2.17;;;10.30;99.90;;;;;;5056629;28;20289;-81
2024/02/05 02:04:05;;;;;;;3.57;2.30;;;10.40;99.90;;;;;;5054113;28;20203;-81
2024/02/05 02:06:34;;;;;;;3.40;2.33;;;10.40;99.90;;;;;;5041402;28;20223;-80
2024/02/05 02:09:03;;;;;;;4.40;2.50;;;10.50;99.90;;;;;;5042019;28;20203;-81
2024/02/05 02:11:29;;;;;;;2.60;2.23;;;10.50;99.90;;;;;;5048730;28;20707;-80
2024/02/05 02:13:56;;;;;;;4.07;2.50;;;10.60;99.90;;;;;;5053698;28;20588;-81
2024/02/05 02:16:27;;;;;;;4.07;2.77;;;10.60;99.90;;;;;;5055993;28;20203;-80
2024/02/05 02:18:57;;;;;;;3.60;2.83;;;10.50;99.90;;;;;;5054755;28;20231;-81
2024/02/05 02:21:26;;;;;;;9.13;2.90;;;10.50;99.90;;;;;;5051351;28;20811;-80
2024/02/05 02:23:55;;;;;;;4.23;3.40;;;10.60;99.90;;;;;;5050655;28;20313;-80
2024/02/05 02:26:22;;;;;;;8.37;3.20;;;10.70;99.90;;;;;;5055909;28;20209;-81
2024/02/05 02:28:49;;;;;;;6.10;3.00;;;10.80;99.90;;;;;;5054952;28;20565;-79
2024/02/05 02:31:20;;;;;;;5.67;2.93;;;10.80;99.90;;;;;;5064538;28;20209;-80
2024/02/05 02:33:56;;;;;;;7.00;3.00;;;10.80;99.90;;;;;;5054254;28;20720;-81
2024/02/05 02:36:29;;;;;;;4.93;3.23;;;10.70;99.90;;;;;;5068748;28;20374;-81
2024/02/05 02:39:05;;;;;;;4.63;3.37;;;10.60;99.90;;;;;;5049847;28;20200;-81
2024/02/05 02:41:37;;;;;;;6.70;4.03;;;10.60;99.90;;;;;;5054048;28;20649;-81
2024/02/05 02:44:04;;;;;;;3.80;3.30;;;10.50;99.90;;;;;;5053318;28;20669;-82
2024/02/05 02:46:31;;;;;;;5.60;3.20;;;10.50;99.90;;;;;;5053668;28;20223;-80
2024/02/05 02:48:58;;;;;;;6.13;3.40;;;10.40;99.90;;;;;;5058430;28;20227;-83
2024/02/05 02:51:26;;;;;;;6.23;3.77;;;10.30;99.90;;;;;;5059193;28;20302;-83
2024/02/05 02:53:53;;;;;;;7.40;3.43;;;10.30;99.90;;;;;;5058528;28;20574;-81
2024/02/05 02:56:21;;;;;;;6.07;3.40;;;10.30;99.90;;;;;;5058534;28;20207;-82
2024/02/05 02:58:48;;;;;;;6.70;3.53;;;10.20;99.90;;;;;;5053321;28;20202;-81
2024/02/05 03:01:14;;;;;;;3.70;3.00;;;10.20;99.90;;;;;;5054150;28;20206;-82
2024/02/05 03:03:41;;;;;;;4.30;3.47;;;10.20;99.90;;;;;;5049724;28;20221;-81
2024/02/05 03:06:08;;;;;;;3.83;3.20;;;10.20;99.90;;;;;;5058007;28;20582;-81
2024/02/05 03:08:35;;;;;;;3.63;3.20;;;10.20;99.90;;;;;;5051151;28;20249;-81
2024/02/05 03:11:02;;;;;;;5.17;3.30;;;10.20;99.90;;;;;;5064698;28;20233;-83
2024/02/05 03:13:30;;;;;;;6.60;3.30;;;10.20;99.90;;;;;;5056590;28;20233;-82
2024/02/05 03:15:56;;;;;;;4.90;3.30;;;10.40;99.90;;;;;;5041812;28;20204;-81
2024/02/05 03:18:23;;;;;;;5.10;3.47;;;10.10;99.90;;;;;;5039172;28;20242;-81
2024/02/05 03:20:50;;;;;;;4.43;3.67;;;10.10;99.90;;;;;;5055604;28;20203;-81
2024/02/05 03:23:17;;;;;;;7.73;3.97;;;10.00;99.90;;;;;;5058359;28;20203;-82
2024/02/05 03:25:44;;;;;;;9.23;4.20;;;10.00;99.90;;;;;;5054868;28;20207;-80
2024/02/05 03:28:10;;;;;;;6.47;3.70;;;10.00;99.90;;;;;;5053498;28;20723;-81
2024/02/05 03:30:39;;;;;;;4.23;3.80;;;10.00;99.90;;;;;;5047688;28;20215;-80
2024/02/05 03:33:06;;;;;;;7.63;3.87;;;10.00;99.90;;;;;;5057818;28;20199;-81
2024/02/05 03:35:33;;;;;;;6.30;3.87;;;10.00;99.90;;;;;;5057980;28;20207;-81
2024/02/05 03:38:00;;;;;;;6.23;3.43;;;9.90;99.90;;;;;;5055584;28;20231;-82
2024/02/05 03:40:26;;;;;;;5.77;3.70;;;9.90;99.90;;;;;;5054446;28;20207;-82
2024/02/05 03:42:54;;;;;;;5.10;3.57;;;9.90;99.90;;;;;;5052534;28;20220;-82
2024/02/05 03:45:21;;;;;;;4.67;3.30;;;9.90;99.90;;;;;;5052694;28;20209;-83
2024/02/05 03:47:49;;;;;;;9.57;4.43;;;9.90;99.90;;;;;;5058388;28;20669;-81
2024/02/05 03:50:17;;;;;;;8.97;3.80;;;9.90;99.90;;;;;;5057550;28;20195;-81
2024/02/05 03:52:45;;;;;;;6.37;4.50;;;9.90;99.90;;;;;;5057519;28;20289;-82
2024/02/05 03:55:13;;;;;;;8.67;4.00;;;9.90;99.90;;;;;;5059944;28;20195;-82
2024/02/05 03:57:42;;;;;;;9.93;3.83;;;9.90;99.90;;;;;;5057944;28;20221;-81
2024/02/05 04:00:10;;;;;;;9.80;3.97;;;9.90;99.90;;;;;;5055225;28;20576;-81
2024/02/05 04:02:38;;;;;;;8.97;4.00;;;10.00;99.90;;;;;;5046899;28;20199;-82
2024/02/05 04:05:07;;;;;;;11.73;4.80;;;10.00;99.90;;;;;;5047923;28;20212;-81
2024/02/05 04:07:34;;;;;;;10.90;4.90;;;10.00;99.90;;;;;;5045998;28;20231;-81
2024/02/05 04:10:01;;;;;;;10.13;4.50;;;10.10;99.90;;;;;;5056562;28;20192;-81
2024/02/05 04:12:28;;;;;;;8.07;5.00;;;10.10;99.90;;;;;;5050746;28;20254;-82
2024/02/05 04:14:55;;;;;;;12.23;5.27;;;10.10;99.90;;;;;;5054287;28;20241;-83
2024/02/05 04:17:23;;;;;;;8.37;4.80;;;10.10;99.90;;;;;;5053489;28;20223;-81
2024/02/05 04:19:50;;;;;;;12.10;4.53;;;10.10;99.90;;;;;;5045014;28;20681;-80
2024/02/05 04:22:18;;;;;;;10.50;4.97;;;10.10;99.90;;;;;;5058121;28;20202;-81
2024/02/05 04:24:45;;;;;;;11.37;4.93;;;10.00;99.90;;;;;;5056282;28;20230;-80
2024/02/05 04:27:11;;;;;;;15.73;5.87;;;10.10;99.90;;;;;;5052389;28;20305;-80
2024/02/05 04:29:40;;;;;;;12.97;5.30;;;10.10;99.90;;;;;;5050014;28;20224;-84
2024/02/05 04:32:07;;;;;;;14.60;5.80;;;10.10;99.90;;;;;;5049498;28;20195;-82
2024/02/05 04:34:34;;;;;;;13.13;5.30;;;10.20;99.90;;;;;;5054475;28;20211;-81
2024/02/05 04:37:01;;;;;;;17.50;5.40;;;10.30;99.90;;;;;;5062505;28;20219;-84
2024/02/05 04:39:29;;;;;;;12.43;5.10;;;10.30;99.90;;;;;;5052368;28;20211;-82
2024/02/05 04:41:56;;;;;;;17.50;6.10;;;10.30;99.90;;;;;;5045728;28;20214;-81
2024/02/05 04:44:22;;;;;;;16.77;6.47;;;10.30;99.90;;;;;;5054256;28;20201;-81
2024/02/05 04:46:49;;;;;;;14.57;6.60;;;10.30;99.90;;;;;;5045529;28;20219;-80
2024/02/05 04:49:18;;;;;;;13.77;5.90;;;10.30;99.90;;;;;;5056430;28;20223;-83
2024/02/05 04:51:48;;;;;;;17.10;6.23;;;10.30;99.90;;;;;;5043220;28;20239;-81
2024/02/05 04:54:15;;;;;;;20.07;6.60;;;10.40;99.90;;;;;;5042239;28;20207;-81
2024/02/05 04:56:43;;;;;;;16.77;6.67;;;10.40;99.90;;;;;;5043417;28;20224;-80
2024/02/05 04:59:10;;;;;;;18.17;6.27;;;10.40;99.90;;;;;;5041391;28;20653;-81
2024/02/05 05:01:36;;;;;;;22.77;6.80;;;10.40;99.90;;;;;;5041398;28;20199;-80
2024/02/05 05:04:04;;;;;;;18.40;6.83;;;10.40;99.90;;;;;;5045784;28;21088;-80
2024/02/05 05:06:30;;;;;;;17.37;6.20;;;10.40;99.90;;;;;;5036443;28;20231;-81
2024/02/05 05:08:57;;;;;;;17.83;6.87;;;10.50;99.90;;;;;;5042492;28;20231;-81
2024/02/05 05:11:24;;;;;;;15.33;6.87;;;10.50;99.90;;;;;;5045071;28;20206;-81
2024/02/05 05:13:53;;;;;;;17.00;5.03;;;10.50;99.90;;;;;;5044472;28;20662;-81
2024/02/05 05:16:19;;;;;;;23.67;7.80;;;10.50;99.90;;;;;;5042150;28;20203;-82
2024/02/05 05:18:46;;;;;;;25.27;6.30;;;10.60;99.90;;;;;;5043123;28;20210;-82
2024/02/05 05:21:13;;;;;;;21.10;6.50;;;10.50;99.90;;;;;;5046111;28;20668;-80
2024/02/05 05:23:42;;;;;;;21.07;6.47;;;10.50;99.90;;;;;;5051049;28;20321;-82
2024/02/05 05:26:08;;;;;;;21.40;6.50;;;10.50;99.90;;;;;;5046348;28;20210;-81
2024/02/05 05:28:38;;;;;;;16.87;5.97;;;10.40;99.90;;;;;;5045783;28;20233;-80
2024/02/05 05:31:06;;;;;;;21.67;5.90;;;10.40;99.90;;;;;;5049740;28;20574;-81
2024/02/05 05:33:33;;;;;;;18.70;6.33;;;10.40;99.90;;;;;;5052256;28;20213;-80
2024/02/05 05:35:59;;;;;;;22.43;5.80;;;10.40;99.90;;;;;;5044881;28;20215;-81
2024/02/05 05:38:27;;;;;;;21.87;6.10;;;10.40;99.90;;;;;;5043268;28;20585;-80
2024/02/05 05:40:54;;;;;;;15.60;5.43;;;10.40;99.90;;;;;;5046533;28;20198;-81
2024/02/05 05:43:21;;;;;;;20.90;6.10;;;10.40;99.90;;;;;;5053316;28;20203;-81
2024/02/05 05:45:48;;;;;;;19.40;6.37;;;10.40;99.90;;;;;;5052505;28;20206;-80
2024/02/05 05:48:16;;;;;;;14.77;5.70;;;10.30;99.90;;;;;;5048160;28;20222;-80
2024/02/05 05:50:42;;;;;;;13.57;5.40;;;10.30;99.90;;;;;;5048967;28;20684;-80
2024/02/05 05:53:09;;;;;;;18.37;5.80;;;10.30;99.90;;;;;;5038491;28;20199;-81
2024/02/05 05:55:36;;;;;;;18.63;7.07;;;10.40;99.90;;;;;;5043123;28;20200;-80
2024/02/05 05:58:03;;;;;;;16.17;6.23;;;10.30;99.90;;;;;;5045636;28;20219;-80
2024/02/05 06:00:30;;;;;;;21.40;6.37;;;10.30;99.90;;;;;;5039394;28;20199;-81
2024/02/05 06:02:56;;;;;;;16.57;5.50;;;10.30;99.90;;;;;;5040278;28;20210;-81
2024/02/05 06:05:24;;;;;;;19.90;5.53;;;10.40;99.90;;;;;;5046528;28;20645;-80
2024/02/05 06:07:51;;;;;;;19.60;6.33;;;10.30;99.90;;;;;;5042888;28;20230;-79
2024/02/05 06:10:18;;;;;;;15.87;5.73;;;10.20;99.90;;;;;;5039879;28;20195;-82
2024/02/05 06:12:45;;;;;;;19.47;5.73;;;10.30;99.90;;;;;;5038416;28;20263;-81
2024/02/05 06:15:14;;;;;;;17.13;6.20;;;10.30;99.90;;;;;;5047529;28;20199;-79
2024/02/05 06:17:41;;;;;;;15.90;5.93;;;10.30;99.90;;;;;;5051872;28;20231;-81
2024/02/05 06:20:08;;;;;;;24.10;6.33;;;10.30;99.90;;;;;;5042945;28;20201;-80
2024/02/05 06:22:36;;;;;;;21.60;6.60;;;10.30;1.00;;;;;;5044606;28;20286;-80
2024/02/05 06:25:04;;;;;;;21.40;6.80;;;10.40;99.90;;;;;;5049926;28;20201;-82
2024/02/05 06:27:31;;;;;;;19.23;6.80;;;10.40;99.90;;;;;;5044695;28;20241;-83
2024/02/05 06:29:58;;;;;;;20.10;6.77;;;10.40;1.00;;;;;;5051205;28;20227;-80
2024/02/05 06:32:25;;;;;;;24.80;6.80;;;10.40;1.00;;;;;;5046904;28;20195;-81
2024/02/05 06:34:51;;;;;;;23.77;7.30;;;10.40;1.00;;;;;;5048379;28;20202;-80
2024/02/05 06:37:18;;;;;;;28.07;6.63;;;10.40;1.00;;;;;;5045799;28;20468;-81
2024/02/05 06:39:46;;;;;;;27.47;7.00;;;10.40;99.90;;;;;;5046835;28;20192;-80
2024/02/05 06:42:13;;;;;;;23.20;6.47;;;10.40;99.90;;;;;;5050799;28;20211;-81
2024/02/05 06:44:41;;;;;;;24.37;8.13;;;10.40;99.90;;;;;;5049207;28;20650;-80
2024/02/05 06:47:08;;;;;;;21.17;6.80;;;10.30;1.00;;;;;;5045539;28;20306;-81
2024/02/05 06:49:36;;;;;;;21.03;6.30;;;10.30;1.00;;;;;;5048665;28;20227;-81
2024/02/05 06:52:03;;;;;;;25.37;6.63;;;10.30;1.00;;;;;;5048816;28;20203;-80
2024/02/05 06:54:30;;;;;;;21.87;6.40;;;10.20;1.00;;;;;;5047457;28;20200;-82
2024/02/05 06:56:58;;;;;;;20.83;6.40;;;10.30;1.00;;;;;;5046385;28;20277;-79
2024/02/05 06:59:25;;;;;;;19.10;6.47;;;10.20;1.00;;;;;;5047399;28;20658;-80
2024/02/05 07:01:52;;;;;;;18.47;6.77;;;10.20;1.00;;;;;;5041207;28;20617;-82
2024/02/05 07:04:19;;;;;;;19.70;6.53;;;10.20;1.00;;;;;;5044940;28;20210;-81
2024/02/05 07:06:45;;;;;;;18.80;6.60;;;10.20;99.90;;;;;;5038187;28;20224;-82
2024/02/05 07:09:13;;;;;;;20.07;7.30;;;10.20;99.90;;;;;;5052204;28;20598;-81
2024/02/05 07:11:40;;;;;;;21.97;6.83;;;10.20;1.00;;;;;;5049038;28;20210;-83
2024/02/05 07:14:08;;;;;;;23.43;6.27;;;10.20;99.90;;;;;;5058175;28;20229;-81
2024/02/05 07:16:35;;;;;;;24.23;6.93;;;10.20;1.00;;;;;;5047730;28;20227;-82
2024/02/05 07:19:01;;;;;;;24.93;6.43;;;10.20;1.00;;;;;;5046546;28;20195;-81
2024/02/05 07:21:29;;;;;;;20.13;6.23;;;10.20;1.00;;;;;;5045260;28;20211;-80
2024/02/05 07:23:56;;;;;;;17.87;6.37;;;10.20;1.00;;;;;;5046974;28;20307;-81
2024/02/05 07:26:23;;;;;;;20.33;7.00;;;10.20;1.00;;;;;;5047896;28;20199;-81
2024/02/05 07:28:50;;;;;;;14.43;5.80;;;10.10;99.90;;;;;;5048056;28;20223;-82
2024/02/05 07:31:18;;;;;;;23.30;7.77;;;10.20;1.00;;;;;;5051256;28;20202;-80
2024/02/05 07:33:45;;;;;;;19.73;6.13;;;10.20;1.00;;;;;;5049016;28;20208;-81
2024/02/05 07:36:11;;;;;;;20.13;6.43;;;10.10;99.90;;;;;;5050705;28;20194;-81
2024/02/05 07:38:39;;;;;;;26.80;8.17;;;10.20;1.00;;;;;;5049326;28;20214;-81
2024/02/05 07:41:06;;;;;;;21.57;6.57;;;10.30;99.90;;;;;;5049863;28;20649;-80
2024/02/05 07:43:33;;;;;;;16.87;6.83;;;10.20;99.90;;;;;;5049247;28;20654;-81
2024/02/05 07:46:00;;;;;;;17.17;5.97;;;10.20;1.00;;;;;;5052846;28;20196;-80
2024/02/05 07:48:29;;;;;;;20.60;6.73;;;10.20;1.00;;;;;;5051879;28;20223;-81
2024/02/05 07:50:56;;;;;;;20.27;6.77;;;10.20;1.00;;;;;;5046940;28;20235;-81
2024/02/05 07:53:24;;;;;;;19.93;7.27;;;10.10;99.90;;;;;;5048877;28;20209;-81
2024/02/05 07:55:52;;;;;;;15.30;5.53;;;10.20;99.90;;;;;;5053767;28;20203;-78
2024/02/05 07:58:19;;;;;;;24.10;7.10;;;10.10;1.00;;;;;;5046456;28;20314;-81
2024/02/05 08:00:46;;;;;;;21.70;7.97;;;10.10;1.00;;;;;;5049407;28;20207;-81
2024/02/05 08:03:13;;;;;;;26.83;7.13;;;10.00;1.00;;;;;;5047165;28;20203;-80
2024/02/05 08:05:41;;;;;;;21.00;6.30;;;10.10;1.00;;;;;;5041116;28;20552;-81
2024/02/05 08:08:09;;;;;;;16.73;5.80;;;10.10;1.00;;;;;;5040079;28;20592;-80
2024/02/05 08:10:36;;;;;;;22.97;7.13;;;10.00;1.00;;;;;;5051612;28;20631;-80
2024/02/05 08:13:04;;;;;;;27.17;7.73;;;10.10;99.90;;;;;;5045466;28;20199;-80
2024/02/05 08:15:30;;;;;;;20.33;6.07;;;10.10;99.90;;;;;;5048326;28;20199;-82
2024/02/05 08:17:57;;;;;;;21.70;6.97;;;10.10;1.00;;;;;;5047912;28;20224;-81
2024/02/05 08:20:23;;;;;;;24.97;6.97;;;10.10;1.00;;;;;;5046009;28;20225;-81
2024/02/05 08:22:52;;;;;;;21.17;6.90;;;10.20;1.00;;;;;;5047656;28;20294;-81
2024/02/05 08:25:19;;;;;;;22.20;6.63;;;10.20;99.90;;;;;;5044080;28;20294;-81
2024/02/05 08:27:45;;;;;;;22.27;7.33;;;10.30;99.90;;;;;;5052566;28;20311;-81
2024/02/05 08:30:13;;;;;;;21.00;6.30;;;10.30;1.00;;;;;;5044927;28;20218;-81
2024/02/05 08:32:40;;;;;;;22.30;7.07;;;10.30;1.00;;;;;;5048645;28;20196;-80
2024/02/05 08:35:08;;;;;;;25.30;6.30;;;10.30;1.00;;;;;;5044912;28;20215;-79
2024/02/05 08:37:35;;;;;;;18.93;6.20;;;10.30;1.00;;;;;;5047160;28;20230;-81
2024/02/05 08:40:03;;;;;;;18.93;6.90;;;10.30;1.00;;;;;;5056012;28;20203;-80
2024/02/05 08:42:33;;;;;;;22.03;6.70;;;10.30;1.00;;;;;;5055888;28;20272;-82
2024/02/05 08:45:00;;;;;;;21.80;6.27;;;10.30;1.00;;;;;;5054515;28;20206;-79
2024/02/05 08:47:26;;;;;;;23.73;6.73;;;10.30;99.90;;;;;;5045611;28;20211;-80
2024/02/05 08:49:53;;;;;;;26.83;6.80;;;10.40;99.90;;;;;;5050283;28;20580;-80
2024/02/05 08:52:21;;;;;;;21.30;8.27;;;10.30;99.90;;;;;;5050591;28;20209;-81
2024/02/05 08:54:48;;;;;;;24.50;6.43;;;10.30;99.90;;;;;;5047833;28;20203;-80
2024/02/05 08:57:16;;;;;;;24.20;6.03;;;10.30;99.90;;;;;;5051078;28;20230;-84
2024/02/05 08:59:43;;;;;;;22.70;6.50;;;10.30;99.90;;;;;;5052291;28;20207;-81
2024/02/05 09:02:14;;;;;;;21.17;6.10;;;10.30;99.90;;;;;;5050737;28;20201;-81
2024/02/05 09:04:41;;;;;;;15.63;5.40;;;10.40;1.00;;;;;;5048543;28;20336;-81
2024/02/05 09:07:08;;;;;;;20.13;5.67;;;10.40;1.00;;;;;;5048029;28;20231;-81
2024/02/05 09:09:36;;;;;;;21.87;6.13;;;10.40;1.00;;;;;;5043025;28;20689;-82
2024/02/05 09:12:02;;;;;;;19.93;7.53;;;10.40;1.00;;;;;;5038280;28;20290;-81
2024/02/05 09:14:31;;;;;;;16.50;5.70;;;10.40;1.00;;;;;;5043990;28;20737;-81
2024/02/05 09:16:57;;;;;;;21.50;5.97;;;10.40;1.00;;;;;;5040490;28;20230;-81
2024/02/05 09:19:24;;;;;;;18.53;6.07;;;10.40;1.00;;;;;;5042798;28;20200;-81
2024/02/05 09:21:51;;;;;;;22.37;7.10;;;10.30;1.00;;;;;;5039421;28;20203;-81
2024/02/05 09:24:18;;;;;;;19.77;5.50;;;10.40;1.00;;;;;;5041152;28;20704;-80
2024/02/05 09:26:44;;;;;;;21.23;5.47;;;10.50;1.00;;;;;;5045782;28;20222;-81
2024/02/05 09:29:11;;;;;;;21.77;6.03;;;10.40;1.00;;;;;;5042426;28;20229;-80
2024/02/05 09:31:40;;;;;;;19.43;5.77;;;10.40;1.00;;;;;;5045758;28;20203;-82
2024/02/05 09:34:07;;;;;;;22.40;5.47;;;10.50;1.00;;;;;;5047137;28;20211;-81
2024/02/05 09:36:34;;;;;;;19.03;5.10;;;10.40;1.00;;;;;;5044165;28;20215;-80
2024/02/05 09:39:01;;;;;;;24.77;6.00;;;10.50;1.00;;;;;;5050634;28;20205;-80
2024/02/05 09:41:34;;;;;;;16.97;6.07;;;10.40;1.00;;;;;;5047095;28;20266;-81
2024/02/05 09:44:03;;;;;;;17.20;5.70;;;10.40;1.00;;;;;;5041040;28;20206;-80
2024/02/05 09:46:32;;;;;;;23.23;5.77;;;10.40;1.00;;;;;;5045490;28;20234;-79
2024/02/05 09:49:03;;;;;;;26.67;6.83;;;10.40;1.00;;;;;;5038714;28;20646;-81
2024/02/05 09:51:30;;;;;;;17.37;6.03;;;10.40;1.00;;;;;;5043087;28;20211;-80
2024/02/05 09:53:58;;;;;;;22.43;6.77;;;10.40;1.00;;;;;;5042197;28;20207;-79
2024/02/05 09:56:25;;;;;;;20.80;5.97;;;10.40;1.00;;;;;;5042656;28;20207;-81
2024/02/05 09:58:52;;;;;;;18.23;6.30;;;10.40;99.90;;;;;;5045040;28;20687;-81
2024/02/05 10:01:20;;;;;;;22.10;5.33;;;10.40;99.90;;;;;;5045137;28;20205;-80
2024/02/05 10:03:48;;;;;;;17.17;5.40;;;10.40;1.00;;;;;;5048326;28;20209;-79
2024/02/05 10:06:18;;;;;;;25.63;6.03;;;10.40;99.90;;;;;;5043896;28;20289;-79
2024/02/05 10:08:49;;;;;;;20.77;5.33;;;10.50;99.90;;;;;;5046030;28;20207;-80
2024/02/05 10:11:17;;;;;;;19.23;5.13;;;10.50;99.90;;;;;;5039829;28;20229;-79
2024/02/05 10:13:45;;;;;;;21.00;5.87;;;10.50;99.90;;;;;;5035926;28;20212;-81
2024/02/05 10:16:13;;;;;;;20.10;5.37;;;10.60;99.90;;;;;;5036874;28;20211;-81
2024/02/05 10:18:40;;;;;;;25.97;6.30;;;10.50;99.90;;;;;;5038230;28;20657;-81
2024/02/05 10:21:06;;;;;;;17.87;4.57;;;10.50;99.90;;;;;;5040260;28;20203;-80
2024/02/05 10:23:34;;;;;;;20.73;5.87;;;10.60;99.90;;;;;;5044166;28;20207;-80
2024/02/05 10:26:03;;;;;;;19.00;5.10;;;10.60;99.90;;;;;;5043730;28;20200;-80
2024/02/05 10:28:30;;;;;;;20.33;5.43;;;10.60;99.90;;;;;;5045594;28;20223;-80
2024/02/05 10:31:05;;;;;;;16.37;5.73;;;10.60;99.90;;;;;;5043465;28;20596;-79
2024/02/05 10:33:31;;;;;;;21.87;5.90;;;10.60;99.90;;;;;;5045527;28;20206;-79
2024/02/05 10:35:58;;;;;;;18.83;5.57;;;10.70;99.90;;;;;;5042124;28;20579;-80
2024/02/05 10:38:26;;;;;;;21.43;6.47;;;10.70;99.90;;;;;;5044519;28;20341;-80
2024/02/05 10:40:55;;;;;;;19.00;5.30;;;10.70;99.90;;;;;;5044291;28;20203;-79
2024/02/05 10:43:22;;;;;;;15.27;6.10;;;10.70;99.90;;;;;;5047178;28;20214;-79
2024/02/05 10:45:48;;;;;;;18.00;5.30;;;10.70;94.30;;;;;;5044691;28;20212;-80
2024/02/05 10:48:15;;;;;;;21.77;6.17;;;10.70;45.00;;;;;;5044224;28;20223;-79
2024/02/05 10:50:44;;;;;;;19.30;5.87;;;10.70;5.90;;;;;;5044533;28;20222;-80
2024/02/05 10:53:11;;;;;;;17.97;5.73;;;10.70;56.90;;;;;;5042591;28;20634;-80
2024/02/05 10:55:40;;;;;;;17.27;5.30;;;10.70;62.00;;;;;;5052030;28;20207;-79
2024/02/05 10:58:11;;;;;;;17.30;5.43;;;10.70;81.50;;;;;;5047631;28;20249;-81
2024/02/05 11:00:38;;;;;;;19.03;5.30;;;10.70;89.90;;;;;;5051951;28;20214;-81
2024/02/05 11:03:07;;;;;;;20.67;6.67;;;10.60;99.90;;;;;;5049666;28;20199;-79
2024/02/05 11:05:35;;;;;;;22.60;7.00;;;10.70;88.30;;;;;;5050063;28;20609;-81
2024/02/05 11:08:09;;;;;;;15.57;4.97;;;10.70;18.00;;;;;;5046544;28;20229;-83
2024/02/05 11:10:41;;;;;;;21.30;5.77;;;10.70;1.00;;;;;;5044584;28;20234;-83
2024/02/05 11:13:11;;;;;;;18.60;5.40;;;10.70;10.50;;;;;;5047817;28;20226;-80
2024/02/05 11:15:41;;;;;;;18.83;5.60;;;10.70;1.00;;;;;;5052663;28;20214;-80
2024/02/05 11:18:14;;;;;;;18.50;5.70;;;10.80;11.30;;;;;;5048008;28;20352;-80
2024/02/05 11:20:43;;;;;;;21.30;6.40;;;10.80;1.00;;;;;;5041977;28;20665;-80
2024/02/05 11:23:10;;;;;;;20.53;5.50;;;10.70;1.00;;;;;;5047195;28;20210;-81
2024/02/05 11:25:37;;;;;;;16.60;6.30;;;10.80;65.30;;;;;;5046264;28;20203;-81
2024/02/05 11:28:05;;;;;;;19.17;5.73;;;10.80;21.50;;;;;;5047045;28;20219;-80
2024/02/05 11:30:36;;;;;;;26.43;7.10;;;10.70;20.50;;;;;;5046796;28;20716;-80
2024/02/05 11:33:02;;;;;;;18.20;6.33;;;10.70;33.50;;;;;;5044713;28;20646;-81
2024/02/05 11:35:29;;;;;;;19.40;6.10;;;10.80;99.90;;;;;;5052398;28;20664;-79
2024/02/05 11:38:06;;;;;;;17.97;6.07;;;10.70;99.90;;;;;;5055500;28;20226;-80
2024/02/05 11:40:34;;;;;;;17.93;5.73;;;10.70;14.50;;;;;;5049540;28;20625;-80
2024/02/05 11:43:03;;;;;;;19.50;6.83;;;10.70;38.40;;;;;;5053646;28;20206;-81
2024/02/05 11:45:33;;;;;;;20.37;7.00;;;10.70;12.30;;;;;;5054781;28;20226;-80
2024/02/05 11:48:01;;;;;;;26.27;7.10;;;10.70;47.10;;;;;;5044614;28;20219;-82
2024/02/05 11:50:28;;;;;;;17.33;6.30;;;10.70;54.40;;;;;;5048928;28;20318;-81
2024/02/05 11:52:56;;;;;;;21.03;7.03;;;10.80;87.30;;;;;;5052223;28;20242;-81
2024/02/05 11:55:25;;;;;;;17.50;6.67;;;10.80;13.00;;;;;;5048991;28;20196;-82
2024/02/05 11:57:52;;;;;;;26.97;9.03;;;10.80;41.30;;;;;;5052298;28;20226;-82
2024/02/05 12:00:19;;;;;;;22.17;7.20;;;10.80;48.70;;;;;;5052555;28;20195;-82
2024/02/05 12:02:48;;;;;;;20.27;6.50;;;10.80;21.50;;;;;;5052742;28;20266;-81
2024/02/05 12:05:17;;;;;;;19.53;6.80;;;11.00;68.50;;;;;;5055322;28;20212;-81
2024/02/05 12:07:44;;;;;;;16.87;7.17;;;11.00;1.00;;;;;;5049524;28;20242;-80
2024/02/05 12:10:11;;;;;;;22.07;7.10;;;11.00;1.00;;;;;;5049670;28;20214;-80
2024/02/05 12:12:39;;;;;;;18.73;7.40;;;11.00;1.00;;;;;;5049170;28;20238;-80
2024/02/05 12:15:16;;;;;;;21.37;7.27;;;11.00;1.00;;;;;;5047720;28;20209;-80
2024/02/05 12:17:43;;;;;;;16.73;7.93;;;11.10;1.00;;;;;;5049544;28;20230;-80
2024/02/05 12:20:18;;;;;;;19.80;7.20;;;11.10;1.00;;;;;;5047286;28;20226;-80
2024/02/05 12:22:46;;;;;;;20.13;7.27;;;11.40;1.00;;;;;;5045687;28;20293;-79
2024/02/05 12:25:14;;;;;;;20.63;7.03;;;11.30;1.00;;;;;;5045636;28;20210;-82
2024/02/05 12:27:42;;;;;;;19.40;7.03;;;11.30;1.00;;;;;;5050491;28;20777;-81
2024/02/05 12:30:10;;;;;;;20.30;7.20;;;11.30;1.00;;;;;;5046279;28;20645;-80
2024/02/05 12:32:37;;;;;;;24.43;7.30;;;11.30;1.00;;;;;;5047687;28;20623;-82
2024/02/05 12:35:05;;;;;;;26.87;7.70;;;11.50;1.00;;;;;;5050497;28;20537;-79
2024/02/05 12:37:33;;;;;;;15.63;7.30;;;11.30;1.00;;;;;;5051208;28;20660;-80
2024/02/05 12:40:00;;;;;;;17.67;6.77;;;11.70;1.00;;;;;;5051505;28;20262;-80
2024/02/05 12:42:27;;;;;;;17.33;7.67;;;11.50;1.00;;;;;;5051752;28;20575;-81
2024/02/05 12:44:55;;;;;;;17.93;8.50;;;11.40;1.00;;;;;;5046362;28;20534;-80